Time;durP1;ratioP1;P1;durP2;ratioP2;P2;SDS_P1;SDS_P2;PMS_P1;PMS_P2;Temp;Humidity;BMP_temperature;BMP_pressure;BME280_temperature;BME280_humidity;BME280_pressure;Samples;Min_cycle;Max_cycle;Signal;HPM_P1;HPM_P2
2020/12/22 00:00:29;;;;;;;60.67;41.17;;;;;;;20.77;25.31;95375.75;5113702;28;20058;-44
2020/12/22 00:02:56;;;;;;;62.22;39.80;;;;;;;20.81;25.08;95376.66;5081818;28;20075;-44
2020/12/22 00:05:26;;;;;;;63.55;40.72;;;;;;;20.92;24.89;95377.81;5074164;28;20048;-44
2020/12/22 00:07:54;;;;;;;65.05;40.70;;;;;;;20.46;25.67;95386.00;5074721;28;20055;-44
2020/12/22 00:10:21;;;;;;;65.25;39.97;;;;;;;20.73;24.87;95390.03;5093989;28;20058;-45
2020/12/22 00:12:48;;;;;;;60.85;37.25;;;;;;;20.89;24.57;95378.47;5094071;28;20492;-45
2020/12/22 00:15:15;;;;;;;61.22;38.10;;;;;;;20.85;24.69;95382.91;5104975;28;20047;-44
2020/12/22 00:17:43;;;;;;;63.60;36.22;;;;;;;20.85;24.63;95382.91;5113992;28;20493;-43
2020/12/22 00:20:12;;;;;;;59.25;37.42;;;;;;;20.77;25.04;95388.25;5114107;28;20441;-44
2020/12/22 00:22:45;;;;;;;57.13;36.67;;;;;;;20.91;24.88;95389.56;5114358;28;20051;-45
2020/12/22 00:25:12;;;;;;;59.42;34.50;;;;;;;20.81;24.72;95386.50;5114267;28;20039;-43
2020/12/22 00:27:39;;;;;;;55.33;34.88;;;;;;;20.62;25.06;95379.03;5114029;28;20513;-45
2020/12/22 00:30:06;;;;;;;58.13;35.13;;;;;;;20.90;24.61;95390.66;5113842;28;20062;-45
2020/12/22 00:32:34;;;;;;;59.13;35.35;;;;;;;21.04;24.55;95390.38;5117760;28;20054;-44
2020/12/22 00:35:02;;;;;;;55.17;33.97;;;;;;;20.87;24.76;95379.91;5117970;28;20047;-44
2020/12/22 00:37:33;;;;;;;49.35;31.35;;;;;;;21.07;24.40;95380.94;5117934;28;20066;-44
2020/12/22 00:40:03;;;;;;;45.95;27.75;;;;;;;20.90;24.49;95382.69;5117770;28;20051;-46
2020/12/22 00:42:34;;;;;;;42.08;27.73;;;;;;;20.63;25.06;95385.91;5118103;28;20058;-45
2020/12/22 00:45:01;;;;;;;40.28;25.42;;;;;;;20.81;24.64;95386.50;5117688;28;20050;-45
2020/12/22 00:47:29;;;;;;;42.42;26.02;;;;;;;20.59;24.65;95382.34;5117765;28;20062;-44
2020/12/22 00:49:56;;;;;;;37.03;24.80;;;;;;;20.71;24.71;95382.38;5117626;28;20378;-44
2020/12/22 00:52:23;;;;;;;36.28;23.38;;;;;;;20.53;25.02;95380.97;5118301;28;20044;-44
2020/12/22 00:54:53;;;;;;;38.97;24.50;;;;;;;20.61;24.72;95391.53;5117556;28;20434;-44
2020/12/22 00:57:23;;;;;;;36.72;25.02;;;;;;;20.47;25.03;95387.56;5098179;22;20052;-44
2020/12/22 01:00:00;;;;;;;33.97;23.40;;;;;;;20.99;24.66;95381.81;5071923;28;20060;-45
2020/12/22 01:02:29;;;;;;;30.25;20.73;;;;;;;20.86;24.28;95383.69;5097575;28;20050;-45
2020/12/22 01:04:57;;;;;;;31.27;23.13;;;;;;;20.89;24.72;95389.09;5097467;28;20044;-43
2020/12/22 01:07:27;;;;;;;25.48;19.75;;;;;;;20.48;25.16;95383.81;5093710;28;20055;-46
2020/12/22 01:09:54;;;;;;;31.67;20.13;;;;;;;20.55;24.92;95376.09;5076934;28;20471;-44
2020/12/22 01:12:21;;;;;;;26.58;20.60;;;;;;;20.52;25.19;95380.19;5076647;28;20477;-43
2020/12/22 01:14:51;;;;;;;29.13;20.58;;;;;;;20.48;25.19;95383.81;5076899;28;20048;-51
2020/12/22 01:17:21;;;;;;;24.67;19.75;;;;;;;20.46;25.18;95388.66;5076428;28;20048;-45
2020/12/22 01:19:48;;;;;;;22.42;18.20;;;;;;;20.54;24.71;95377.19;5076836;28;20045;-43
2020/12/22 01:22:16;;;;;;;23.65;17.70;;;;;;;20.31;25.09;95374.84;5076926;28;20056;-44
2020/12/22 01:24:46;;;;;;;22.60;16.67;;;;;;;20.47;24.91;95379.59;5076919;28;20044;-43
2020/12/22 01:27:15;;;;;;;20.25;16.73;;;;;;;20.68;24.67;95369.75;5089503;28;20053;-43
2020/12/22 01:29:43;;;;;;;20.95;17.00;;;;;;;20.43;25.03;95382.13;5076820;28;20055;-44
2020/12/22 01:32:10;;;;;;;20.58;16.42;;;;;;;20.04;25.52;95378.00;5076243;28;20056;-44
2020/12/22 01:34:37;;;;;;;20.02;15.80;;;;;;;20.30;24.93;95377.84;5076552;28;20466;-44
2020/12/22 01:37:04;;;;;;;21.75;16.20;;;;;;;20.33;25.07;95377.19;5076355;28;20052;-43
2020/12/22 01:39:31;;;;;;;19.95;15.93;;;;;;;20.26;25.08;95383.00;5076322;28;20336;-42
2020/12/22 01:41:58;;;;;;;22.08;17.13;;;;;;;20.01;25.44;95370.66;5074856;28;20079;-43
2020/12/22 01:44:25;;;;;;;23.15;16.67;;;;;;;20.06;25.43;95372.38;5075931;28;20052;-44
2020/12/22 01:46:52;;;;;;;25.38;17.52;;;;;;;19.99;25.55;95373.63;5076209;28;20477;-43
2020/12/22 01:49:28;;;;;;;22.75;17.33;;;;;;;20.46;24.97;95370.09;5075742;28;20044;-44
2020/12/22 01:51:56;;;;;;;21.15;17.77;;;;;;;19.93;25.58;95374.13;5076221;28;20111;-45
2020/12/22 01:54:26;;;;;;;21.35;17.50;;;;;;;20.31;25.16;95380.16;5076368;28;20048;-45
2020/12/22 01:56:56;;;;;;;22.45;17.08;;;;;;;20.06;25.28;95378.44;5087398;28;20386;-44
2020/12/22 01:59:23;;;;;;;21.80;16.95;;;;;;;19.74;25.79;95376.41;5077801;28;20048;-44
2020/12/22 02:01:52;;;;;;;26.90;17.50;;;;;;;20.35;24.89;95374.22;5076100;28;20052;-44
2020/12/22 02:04:20;;;;;;;21.63;16.60;;;;;;;20.25;25.14;95376.13;5076187;28;20052;-45
2020/12/22 02:06:48;;;;;;;23.17;16.55;;;;;;;19.98;25.60;95376.59;5075993;28;20045;-44
2020/12/22 02:09:15;;;;;;;23.73;16.30;;;;;;;20.11;25.42;95374.81;5075867;28;20466;-44
2020/12/22 02:11:45;;;;;;;22.70;16.58;;;;;;;20.22;25.24;95376.00;5075750;28;20051;-45
2020/12/22 02:14:15;;;;;;;21.02;16.60;;;;;;;19.94;25.54;95357.91;5075205;28;20059;-45
2020/12/22 02:16:42;;;;;;;20.38;16.17;;;;;;;20.32;24.93;95363.13;5075716;28;20052;-44
2020/12/22 02:19:12;;;;;;;21.52;15.75;;;;;;;20.40;25.15;95366.03;5075530;28;20053;-45
2020/12/22 02:21:42;;;;;;;;;;;;;;;19.95;25.55;95370.06;5058639;28;20051;-44
2020/12/22 02:24:09;;;;;;;20.73;15.45;;;;;;;20.02;25.44;95377.50;5075702;28;19923;-44
2020/12/22 02:26:36;;;;;;;19.35;15.13;;;;;;;20.27;25.13;95360.66;5084562;28;20044;-45
2020/12/22 02:29:03;;;;;;;21.17;15.57;;;;;;;20.52;24.71;95360.81;5080852;28;20366;-44
2020/12/22 02:31:33;;;;;;;24.50;16.35;;;;;;;20.65;24.37;95357.13;5075566;28;20451;-43
2020/12/22 02:34:03;;;;;;;19.58;16.20;;;;;;;20.44;24.98;95370.41;5075479;28;20052;-44
2020/12/22 02:36:33;;;;;;;22.05;15.50;;;;;;;20.06;25.57;95357.22;5075271;28;20463;-43
2020/12/22 02:39:00;;;;;;;21.23;16.23;;;;;;;20.13;25.38;95352.16;5075126;28;20048;-44
2020/12/22 02:41:28;;;;;;;19.80;15.73;;;;;;;20.10;25.63;95354.69;5075249;28;20055;-44
2020/12/22 02:43:58;;;;;;;21.98;15.95;;;;;;;20.18;25.60;95349.31;5075275;28;20052;-43
2020/12/22 02:46:25;;;;;;;21.23;16.33;;;;;;;20.18;25.35;95354.63;5075109;28;20051;-44
2020/12/22 02:48:52;;;;;;;21.95;16.38;;;;;;;20.31;25.37;95353.63;5074745;28;20378;-45
2020/12/22 02:51:19;;;;;;;21.30;17.60;;;;;;;20.11;25.56;95349.06;5075129;28;20051;-44
2020/12/22 02:53:46;;;;;;;21.40;16.23;;;;;;;20.40;25.53;95347.44;5057042;28;20052;-45
2020/12/22 02:56:18;;;;;;;22.35;17.45;;;;;;;20.53;24.89;95354.41;5080544;28;20430;-45
2020/12/22 02:58:45;;;;;;;22.98;18.25;;;;;;;20.61;24.70;95340.28;5084054;28;20055;-43
2020/12/22 03:01:12;;;;;;;25.20;18.50;;;;;;;20.63;24.82;95346.03;5075039;28;20052;-44
2020/12/22 03:03:42;;;;;;;22.13;17.58;;;;;;;20.69;24.69;95341.31;5074995;28;20048;-45
2020/12/22 03:06:09;;;;;;;22.85;18.25;;;;;;;20.17;25.26;95342.47;5074331;28;20371;-44
2020/12/22 03:08:38;;;;;;;23.00;18.48;;;;;;;20.32;25.04;95333.94;5074565;28;20052;-43
2020/12/22 03:11:08;;;;;;;23.33;18.58;;;;;;;20.09;25.52;95334.56;5074911;28;20044;-44
2020/12/22 03:13:36;;;;;;;21.05;17.05;;;;;;;19.88;25.81;95339.84;5074912;28;20056;-43
2020/12/22 03:16:03;;;;;;;22.33;17.30;;;;;;;19.92;25.72;95332.78;5074291;28;20060;-43
2020/12/22 03:18:30;;;;;;;22.77;17.42;;;;;;;20.22;25.23;95326.34;5074275;28;20040;-43
2020/12/22 03:20:57;;;;;;;25.30;19.50;;;;;;;20.38;24.93;95321.22;5074713;28;20048;-43
2020/12/22 03:23:24;;;;;;;29.35;22.10;;;;;;;20.41;24.96;95325.91;5074608;28;20044;-44
2020/12/22 03:25:52;;;;;;;37.33;25.73;;;;;;;20.52;25.00;95320.97;5076991;28;20054;-43
2020/12/22 03:28:22;;;;;;;37.58;25.35;;;;;;;19.93;25.35;95316.53;5087480;28;20372;-43
2020/12/22 03:30:49;;;;;;;33.13;23.52;;;;;;;20.89;24.30;95314.69;5073715;28;20359;-43
2020/12/22 03:33:16;;;;;;;35.55;23.30;;;;;;;20.39;24.65;95322.00;5059152;28;20052;-43
2020/12/22 03:35:43;;;;;;;31.70;23.63;;;;;;;19.91;25.58;95326.69;5053679;28;20060;-45
2020/12/22 03:38:10;;;;;;;28.48;20.98;;;;;;;20.79;24.39;95325.72;5063714;28;20817;-43
2020/12/22 03:40:37;;;;;;;26.00;19.90;;;;;;;21.46;23.31;95327.22;5087727;28;20443;-43
2020/12/22 03:43:04;;;;;;;25.35;20.42;;;;;;;20.67;24.44;95322.25;5074244;28;20059;-44
2020/12/22 03:45:35;;;;;;;28.10;20.58;;;;;;;20.38;24.71;95323.88;5073916;28;20477;-44
2020/12/22 03:48:02;;;;;;;28.92;19.67;;;;;;;20.59;24.40;95326.56;5073088;28;20079;-44
2020/12/22 03:50:29;;;;;;;26.48;20.48;;;;;;;19.78;25.60;95324.28;5055719;28;20052;-43
2020/12/22 03:53:00;;;;;;;30.83;21.65;;;;;;;20.17;25.02;95325.75;5054117;28;20048;-45
2020/12/22 03:55:27;;;;;;;34.25;22.52;;;;;;;20.07;25.08;95320.84;5053629;28;20049;-45
2020/12/22 03:57:57;;;;;;;28.70;21.67;;;;;;;20.31;24.65;95321.75;5056117;28;20060;-44
2020/12/22 04:00:24;;;;;;;32.13;22.75;;;;;;;20.84;24.14;95322.88;5073551;28;20052;-43
2020/12/22 04:02:52;;;;;;;34.80;21.90;;;;;;;21.67;23.22;95321.03;5069112;28;20056;-43
2020/12/22 04:05:19;;;;;;;26.77;20.55;;;;;;;21.56;23.01;95315.34;5053350;28;20048;-44
2020/12/22 04:07:55;;;;;;;30.05;23.15;;;;;;;21.78;22.79;95322.13;5054553;28;20444;-45
2020/12/22 04:10:22;;;;;;;;;;;;;;;20.76;23.99;95326.38;5074403;28;20056;-43
2020/12/22 04:12:49;;;;;;;29.10;20.83;;;;;;;20.50;24.37;95317.88;5065112;28;19923;-43
2020/12/22 04:15:19;;;;;;;27.48;21.58;;;;;;;20.37;24.59;95321.56;5053524;28;20060;-44
2020/12/22 04:17:48;;;;;;;30.13;22.40;;;;;;;20.31;24.74;95327.06;5053330;28;20048;-45
2020/12/22 04:20:18;;;;;;;33.35;24.67;;;;;;;20.23;24.90;95324.44;5057419;28;20056;-44
2020/12/22 04:22:45;;;;;;;37.90;25.83;;;;;;;19.82;25.26;95327.84;5053653;28;20048;-43
2020/12/22 04:25:12;;;;;;;36.65;25.27;;;;;;;20.10;24.64;95325.50;5053515;28;20060;-44
2020/12/22 04:27:42;;;;;;;40.78;27.85;;;;;;;20.06;24.91;95328.03;5070777;28;20060;-44
2020/12/22 04:30:12;;;;;;;44.05;27.52;;;;;;;20.18;24.58;95330.75;5073063;28;20048;-45
2020/12/22 04:32:42;;;;;;;46.45;30.08;;;;;;;20.59;24.15;95327.34;5073541;28;20044;-44
2020/12/22 04:35:12;;;;;;;43.45;28.15;;;;;;;20.54;24.44;95318.75;5055666;28;20060;-44
2020/12/22 04:37:39;;;;;;;43.13;28.42;;;;;;;20.93;23.83;95326.22;5053615;28;20347;-44
2020/12/22 04:40:06;;;;;;;48.47;29.92;;;;;;;20.55;24.21;95322.97;5058250;28;20060;-43
2020/12/22 04:42:36;;;;;;;47.83;31.73;;;;;;;20.44;24.38;95324.47;5053454;28;20371;-43
2020/12/22 04:45:04;;;;;;;43.08;28.40;;;;;;;20.77;23.79;95327.16;5053293;28;20402;-44
2020/12/22 04:47:31;;;;;;;38.92;28.38;;;;;;;21.30;23.08;95323.66;5052938;28;20047;-44
2020/12/22 04:50:04;;;;;;;40.28;28.08;;;;;;;21.61;22.85;95328.47;5070754;28;20127;-45
2020/12/22 04:52:34;;;;;;;39.83;28.40;;;;;;;21.79;22.29;95332.44;5058717;28;20650;-44
2020/12/22 04:55:04;;;;;;;41.83;26.80;;;;;;;21.20;23.29;95335.47;5051893;28;20048;-44
2020/12/22 04:57:32;;;;;;;34.80;25.65;;;;;;;20.68;23.74;95329.91;5059913;28;20073;-44
2020/12/22 05:00:01;;;;;;;35.97;26.20;;;;;;;20.42;24.30;95340.75;5070351;28;20048;-43
2020/12/22 05:02:31;;;;;;;42.17;26.13;;;;;;;19.95;24.88;95335.56;5053477;28;20049;-43
2020/12/22 05:05:01;;;;;;;35.15;26.30;;;;;;;19.74;25.21;95337.41;5052131;28;20079;-45
2020/12/22 05:07:28;;;;;;;38.55;26.55;;;;;;;19.89;25.03;95347.47;5052931;28;20056;-44
2020/12/22 05:10:08;;;;;;;40.22;26.70;;;;;;;19.66;25.27;95341.66;5069582;28;20048;-44
2020/12/22 05:12:42;;;;;;;36.58;25.83;;;;;;;19.91;25.07;95350.59;5073145;28;20048;-44
2020/12/22 05:15:10;;;;;;;37.97;27.08;;;;;;;19.66;24.92;95344.31;5072891;28;20059;-43
2020/12/22 05:17:45;;;;;;;40.80;26.65;;;;;;;20.29;24.57;95339.06;5074774;28;20060;-44
2020/12/22 05:20:17;;;;;;;35.60;24.40;;;;;;;20.36;24.14;95336.72;5066970;28;20052;-43
2020/12/22 05:22:50;;;;;;;35.13;24.45;;;;;;;20.29;24.45;95339.84;5039104;28;20075;-43
2020/12/22 05:25:23;;;;;;;35.88;23.88;;;;;;;19.39;25.54;95331.47;5055735;28;20055;-44
2020/12/22 05:27:52;;;;;;;33.53;23.90;;;;;;;19.99;24.80;95341.00;5063135;28;20052;-45
2020/12/22 05:30:22;;;;;;;35.88;24.67;;;;;;;19.81;25.04;95334.25;5075601;28;20048;-44
2020/12/22 05:32:51;;;;;;;31.90;22.95;;;;;;;20.18;24.76;95333.38;5076761;28;20091;-44
2020/12/22 05:35:19;;;;;;;34.85;23.75;;;;;;;20.10;24.91;95336.13;5076493;28;20048;-44
2020/12/22 05:37:48;;;;;;;37.13;25.25;;;;;;;19.92;25.03;95335.44;5076469;28;20060;-43
2020/12/22 05:40:15;;;;;;;32.72;24.30;;;;;;;19.86;25.19;95347.34;5076357;28;20048;-43
2020/12/22 05:42:46;;;;;;;31.55;22.58;;;;;;;19.97;25.25;95348.50;5076356;28;20085;-43
2020/12/22 05:45:13;;;;;;;31.40;23.38;;;;;;;19.84;25.33;95338.94;5058481;28;20059;-44
2020/12/22 05:47:40;;;;;;;31.83;22.85;;;;;;;19.81;25.53;95336.91;5076495;28;20037;-44
2020/12/22 05:50:07;;;;;;;34.88;24.75;;;;;;;19.86;25.40;95336.72;5057742;28;20048;-43
2020/12/22 05:52:34;;;;;;;33.05;23.98;;;;;;;19.89;25.43;95342.16;5076269;28;20379;-43
2020/12/22 05:55:01;;;;;;;28.20;22.08;;;;;;;19.74;25.62;95349.88;5076110;28;20048;-43
2020/12/22 05:57:30;;;;;;;31.35;22.98;;;;;;;19.77;26.09;95350.03;5092329;28;20052;-42
2020/12/22 05:59:58;;;;;;;32.92;24.33;;;;;;;18.63;27.66;95349.88;5080616;28;20044;-44
2020/12/22 06:02:30;;;;;;;34.60;24.52;;;;;;;18.35;28.01;95347.50;5058540;28;20044;-44
2020/12/22 06:05:00;;;;;;;34.00;24.23;;;;;;;19.20;26.63;95346.94;5076107;28;20099;-43
2020/12/22 06:07:28;;;;;;;40.13;25.48;;;;;;;19.48;25.89;95352.63;5075948;28;20071;-44
2020/12/22 06:09:56;;;;;;;37.95;26.40;;;;;;;19.20;26.16;95346.94;5075558;28;20048;-43
2020/12/22 06:12:26;;;;;;;38.80;26.05;;;;;;;19.26;26.50;95356.31;5075792;28;20048;-44
2020/12/22 06:14:54;;;;;;;32.90;24.00;;;;;;;19.61;25.95;95344.50;5073743;28;20056;-43
2020/12/22 06:17:24;;;;;;;32.90;21.88;;;;;;;19.71;25.32;95341.47;5075892;28;20474;-43
2020/12/22 06:19:51;;;;;;;25.90;19.95;;;;;;;19.97;24.95;95338.69;5075577;28;20378;-44
2020/12/22 06:22:24;;;;;;;28.10;19.33;;;;;;;19.94;24.77;95333.25;5075864;28;20051;-44
2020/12/22 06:24:53;;;;;;;27.98;20.05;;;;;;;20.05;24.69;95334.44;5075740;28;20048;-44
2020/12/22 06:27:20;;;;;;;31.77;21.10;;;;;;;19.92;25.05;95335.44;5085097;28;20048;-43
2020/12/22 06:29:47;;;;;;;34.55;24.70;;;;;;;19.78;25.28;95325.06;5056925;28;20070;-43
2020/12/22 06:32:17;;;;;;;35.17;25.70;;;;;;;20.09;24.71;95332.69;5074992;28;20378;-42
2020/12/22 06:34:45;;;;;;;41.85;31.15;;;;;;;19.53;25.38;95326.75;5074502;28;20052;-44
2020/12/22 06:37:12;;;;;;;36.13;27.50;;;;;;;19.95;24.83;95334.78;5074445;28;20052;-44
2020/12/22 06:39:50;;;;;;;28.08;22.75;;;;;;;20.12;24.47;95324.06;5074660;28;20045;-43
2020/12/22 06:42:32;;;;;;;24.55;20.30;;;;;;;20.27;24.15;95328.78;5074917;28;20052;-42
2020/12/22 06:45:20;;;;;;;24.75;19.50;;;;;;;20.32;24.11;95328.63;5068220;28;20051;-43
2020/12/22 06:47:48;;;;;;;24.33;18.75;;;;;;;20.05;24.95;95329.13;5075246;28;20055;-44
2020/12/22 06:50:46;;;;;;;25.42;19.10;;;;;;;19.94;24.85;95335.88;5074812;28;20044;-44
2020/12/22 06:53:46;;;;;;;24.73;18.05;;;;;;;19.82;25.31;95325.97;5075149;28;20044;-43
2020/12/22 06:56:42;;;;;;;24.30;18.25;;;;;;;20.51;24.45;95324.72;5036198;28;20446;-44
2020/12/22 06:59:13;;;;;;;29.77;19.60;;;;;;;20.36;24.49;95327.97;5094621;28;20443;-43
2020/12/22 07:01:46;;;;;;;27.42;20.83;;;;;;;20.26;24.58;95329.13;5077514;28;20058;-43
2020/12/22 07:04:23;;;;;;;29.02;21.80;;;;;;;20.41;24.58;95320.59;5076258;28;20375;-43
2020/12/22 07:06:52;;;;;;;29.60;21.50;;;;;;;20.78;24.17;95329.47;5057143;28;20056;-43
2020/12/22 07:09:25;;;;;;;34.88;22.90;;;;;;;20.40;24.68;95323.56;5074510;28;20045;-44
2020/12/22 07:12:09;;;;;;;33.65;23.20;;;;;;;20.64;24.24;95326.34;5074154;28;20063;-43
2020/12/22 07:14:41;;;;;;;48.83;36.38;;;;;;;20.39;24.82;95319.34;5073570;28;20362;-44
2020/12/22 07:17:08;;;;;;;38.95;27.48;;;;;;;20.73;24.21;95324.38;5074304;28;20052;-43
2020/12/22 07:19:36;;;;;;;37.22;27.80;;;;;;;19.99;25.50;95314.47;5057298;28;20049;-44
2020/12/22 07:22:10;;;;;;;38.50;29.48;;;;;;;19.86;25.47;95315.50;5074713;28;20053;-43
2020/12/22 07:24:37;;;;;;;44.60;27.25;;;;;;;19.67;25.88;95314.03;5074182;28;20351;-44
2020/12/22 07:27:10;;;;;;;38.17;27.25;;;;;;;19.55;26.30;95311.31;5087283;28;20048;-44
2020/12/22 07:29:41;;;;;;;45.95;29.48;;;;;;;19.43;26.11;95313.81;5094464;28;20051;-43
2020/12/22 07:32:08;;;;;;;44.97;30.05;;;;;;;19.44;26.37;95315.38;5094518;28;20043;-43
2020/12/22 07:34:37;;;;;;;45.83;29.52;;;;;;;19.49;26.40;95323.13;5086071;28;20075;-43
2020/12/22 07:37:06;;;;;;;43.38;28.65;;;;;;;20.19;25.30;95316.34;5073883;28;20463;-44
2020/12/22 07:39:33;;;;;;;42.28;28.63;;;;;;;20.29;25.11;95323.94;5074125;28;20246;-42
2020/12/22 07:42:11;;;;;;;40.70;27.75;;;;;;;20.47;24.96;95319.28;5073956;28;20056;-44
2020/12/22 07:44:38;;;;;;;36.75;26.75;;;;;;;20.63;24.79;95327.44;5074249;28;20048;-43
2020/12/22 07:47:06;;;;;;;36.85;27.45;;;;;;;20.53;25.01;95322.53;5074045;28;20051;-43
2020/12/22 07:49:33;;;;;;;41.55;28.08;;;;;;;20.79;24.91;95328.38;5073820;28;20048;-43
2020/12/22 07:52:00;;;;;;;36.95;28.00;;;;;;;20.58;24.92;95330.31;5073303;28;20175;-43
2020/12/22 07:54:30;;;;;;;42.80;30.15;;;;;;;20.80;24.72;95324.63;5072843;28;20048;-43
2020/12/22 07:57:01;;;;;;;41.15;29.48;;;;;;;20.59;24.96;95321.25;5085894;28;20055;-43
2020/12/22 07:59:28;;;;;;;40.67;29.15;;;;;;;20.76;24.87;95323.72;5061417;28;20053;-43
2020/12/22 08:01:58;;;;;;;38.05;28.75;;;;;;;20.98;24.32;95337.75;5053788;28;20049;-44
2020/12/22 08:04:28;;;;;;;40.42;29.88;;;;;;;20.89;24.69;95333.28;5059750;28;20058;-44
2020/12/22 08:06:59;;;;;;;38.00;29.35;;;;;;;20.94;24.66;95333.09;5073684;28;20048;-44
2020/12/22 08:09:34;;;;;;;44.90;29.90;;;;;;;20.61;24.89;95324.34;5073951;28;20447;-43
2020/12/22 08:12:03;;;;;;;40.85;28.75;;;;;;;20.86;24.73;95336.63;5073906;28;20075;-44
2020/12/22 08:14:44;;;;;;;41.50;28.77;;;;;;;20.98;24.61;95327.88;5073605;28;20059;-43
2020/12/22 08:17:21;;;;;;;40.97;28.52;;;;;;;21.27;24.11;95319.00;5056490;28;20048;-43
2020/12/22 08:19:48;;;;;;;40.67;28.42;;;;;;;21.03;24.42;95314.38;5073667;28;20053;-44
2020/12/22 08:22:19;;;;;;;42.03;29.25;;;;;;;20.88;24.52;95321.13;5039522;28;20056;-42
2020/12/22 08:24:46;;;;;;;39.13;29.65;;;;;;;20.88;24.35;95310.50;5055567;28;20048;-43
2020/12/22 08:27:13;;;;;;;44.05;30.48;;;;;;;20.88;24.75;95317.69;5087731;28;20052;-43
2020/12/22 08:29:42;;;;;;;49.13;33.35;;;;;;;20.82;24.53;95313.69;5093294;28;20047;-43
2020/12/22 08:32:12;;;;;;;44.63;32.33;;;;;;;21.18;24.40;95310.31;5094070;28;20047;-44
2020/12/22 08:34:45;;;;;;;45.28;33.35;;;;;;;21.36;24.14;95309.06;5069049;28;20052;-43
2020/12/22 08:37:12;;;;;;;51.00;35.08;;;;;;;21.04;24.41;95304.53;5073624;28;20447;-44
2020/12/22 08:39:44;;;;;;;48.88;34.45;;;;;;;21.27;24.69;95313.69;5060723;28;20060;-45
2020/12/22 08:42:11;;;;;;;57.50;42.13;;;;;;;20.87;24.51;95316.91;5053623;28;20056;-43
2020/12/22 08:44:49;;;;;;;55.95;38.17;;;;;;;21.51;24.03;95307.59;5059290;28;20051;-43
2020/12/22 08:47:23;;;;;;;51.17;39.65;;;;;;;21.35;24.16;95309.38;5073573;28;20044;-43
2020/12/22 08:49:50;;;;;;;58.78;42.42;;;;;;;21.37;24.26;95313.25;5073341;28;20371;-42
2020/12/22 08:52:19;;;;;;;54.20;41.13;;;;;;;21.50;24.36;95308.72;5074837;28;20052;-44
2020/12/22 08:54:59;;;;;;;57.13;42.40;;;;;;;21.24;24.76;95315.13;5075889;28;20078;-43
2020/12/22 08:57:26;;;;;;;55.30;40.92;;;;;;;21.29;24.55;95319.44;5092630;28;20339;-43
2020/12/22 08:59:53;;;;;;;58.70;44.25;;;;;;;21.20;24.54;95314.19;5079897;28;20442;-43
2020/12/22 09:02:31;;;;;;;60.72;42.60;;;;;;;20.99;24.59;95318.03;5082482;28;20044;-44
2020/12/22 09:05:09;;;;;;;49.92;39.45;;;;;;;21.20;24.46;95314.19;5076899;28;20052;-44
2020/12/22 09:07:36;;;;;;;49.60;35.83;;;;;;;21.30;24.53;95315.69;5076897;28;20045;-43
2020/12/22 09:10:07;;;;;;;43.17;32.00;;;;;;;21.18;24.56;95310.31;5077209;28;20055;-44
2020/12/22 09:12:35;;;;;;;42.08;31.85;;;;;;;21.14;24.83;95304.13;5077194;28;20059;-42
2020/12/22 09:15:05;;;;;;;40.40;31.77;;;;;;;21.00;24.96;95311.59;5076695;28;20052;-43
2020/12/22 09:17:33;;;;;;;44.88;30.85;;;;;;;21.14;24.51;95310.22;5076757;28;20056;-43
2020/12/22 09:20:01;;;;;;;39.10;27.38;;;;;;;20.97;24.97;95306.94;5076829;28;20055;-44
2020/12/22 09:22:31;;;;;;;34.85;27.05;;;;;;;20.35;25.55;95300.63;5076948;28;20506;-43
2020/12/22 09:25:00;;;;;;;36.63;27.13;;;;;;;21.42;24.50;95299.75;5068026;28;20056;-43
2020/12/22 09:27:32;;;;;;;37.63;28.30;;;;;;;21.29;24.22;95300.06;5093019;28;20435;-44
2020/12/22 09:30:00;;;;;;;38.00;29.83;;;;;;;20.72;25.09;95298.91;5096971;28;20794;-43
2020/12/22 09:32:28;;;;;;;44.10;29.35;;;;;;;20.94;24.94;95301.19;5095935;28;20354;-43
2020/12/22 09:34:56;;;;;;;38.38;29.05;;;;;;;21.11;24.91;95294.16;5089390;28;20048;-43
2020/12/22 09:37:24;;;;;;;39.72;28.75;;;;;;;21.16;24.77;95291.25;5076519;28;20059;-43
2020/12/22 09:39:52;;;;;;;40.90;30.38;;;;;;;21.12;24.63;95290.38;5076424;28;20055;-44
2020/12/22 09:42:24;;;;;;;42.75;31.90;;;;;;;20.89;24.91;95293.44;5076470;28;20047;-44
2020/12/22 09:44:51;;;;;;;43.85;30.23;;;;;;;21.06;24.82;95294.34;5076128;28;20056;-43
2020/12/22 09:47:19;;;;;;;44.78;30.98;;;;;;;20.95;24.99;95286.03;5076412;28;20052;-43
2020/12/22 09:49:46;;;;;;;43.75;32.15;;;;;;;21.15;24.62;95284.41;5076029;28;20063;-42
2020/12/22 09:52:13;;;;;;;46.13;33.47;;;;;;;20.70;25.26;95290.50;5076352;28;20048;-43
2020/12/22 09:54:40;;;;;;;44.30;33.20;;;;;;;21.07;24.63;95283.38;5075618;28;20044;-43
2020/12/22 09:57:16;;;;;;;43.20;33.17;;;;;;;21.03;24.85;95285.16;5089537;28;20063;-43
2020/12/22 09:59:45;;;;;;;43.83;32.78;;;;;;;21.06;24.92;95281.81;5096248;28;20089;-43
2020/12/22 10:02:12;;;;;;;45.03;33.25;;;;;;;21.24;24.72;95277.13;5078751;28;20051;-42
2020/12/22 10:04:39;;;;;;;50.65;34.03;;;;;;;21.02;25.02;95266.88;5090943;28;20051;-43
2020/12/22 10:07:08;;;;;;;44.08;34.13;;;;;;;21.37;24.47;95262.72;5075963;28;20041;-43
2020/12/22 10:09:35;;;;;;;44.85;34.50;;;;;;;21.53;23.89;95258.28;5074279;28;20363;-41
2020/12/22 10:12:03;;;;;;;51.65;36.42;;;;;;;21.43;24.43;95264.06;5055916;28;20060;-44
2020/12/22 10:14:37;;;;;;;50.40;37.63;;;;;;;21.61;24.05;95263.84;5058771;28;20056;-43
2020/12/22 10:17:04;;;;;;;49.65;37.88;;;;;;;21.63;24.20;95262.38;5075563;28;20749;-43
2020/12/22 10:19:40;;;;;;;48.38;38.00;;;;;;;21.70;24.51;95256.50;5075746;28;20079;-43
2020/12/22 10:22:09;;;;;;;53.55;40.50;;;;;;;21.91;23.92;95254.47;5058463;28;20048;-44
2020/12/22 10:24:37;;;;;;;53.95;38.42;;;;;;;21.49;24.45;95257.41;5075714;28;20048;-43
2020/12/22 10:27:04;;;;;;;49.88;38.75;;;;;;;21.79;24.14;95255.25;5076307;28;20658;-44
2020/12/22 10:29:32;;;;;;;56.38;40.55;;;;;;;21.81;24.18;95254.91;5075651;28;20047;-43
2020/12/22 10:31:59;;;;;;;55.92;41.17;;;;;;;21.66;24.34;95255.63;5075425;28;20055;-44
2020/12/22 10:34:28;;;;;;;60.55;43.67;;;;;;;21.77;24.16;95248.72;5075530;28;20057;-44
2020/12/22 10:36:56;;;;;;;60.90;47.00;;;;;;;21.76;24.19;95260.47;5075108;28;20053;-43
2020/12/22 10:39:26;;;;;;;59.63;46.95;;;;;;;21.46;24.54;95246.66;5075522;28;20040;-44
2020/12/22 10:41:57;;;;;;;58.28;45.63;;;;;;;21.60;24.33;95252.41;5075330;28;20382;-43
2020/12/22 10:44:24;;;;;;;53.30;43.35;;;;;;;21.63;24.43;95250.97;5075421;28;20057;-43
2020/12/22 10:46:52;;;;;;;51.67;38.85;;;;;;;21.22;24.73;95252.72;5074828;28;20071;-44
2020/12/22 10:49:21;;;;;;;56.15;41.60;;;;;;;21.68;23.90;95253.41;5075253;28;20059;-43
2020/12/22 10:51:48;;;;;;;60.45;44.05;;;;;;;21.53;24.33;95247.63;5075005;28;20044;-43
2020/12/22 10:54:16;;;;;;;58.75;44.17;;;;;;;21.47;24.55;95248.19;5057078;28;20056;-43
2020/12/22 10:56:55;;;;;;;60.13;45.47;;;;;;;21.57;24.51;95242.41;5076551;28;20059;-44
2020/12/22 10:59:23;;;;;;;69.38;52.63;;;;;;;21.84;24.01;95246.25;5075188;28;20063;-43
2020/12/22 11:01:56;;;;;;;58.17;43.10;;;;;;;21.60;23.99;95238.31;5075062;28;20442;-43
2020/12/22 11:04:24;;;;;;;76.82;56.22;;;;;;;21.92;23.83;95228.63;5072621;28;20044;-43
2020/12/22 11:09:33;;;;;;;71.15;53.78;;;;;;;21.72;24.03;95207.16;5074633;28;20051;-43
2020/12/22 11:12:00;;;;;;;68.03;52.40;;;;;;;21.76;23.93;95207.25;5073476;28;20060;-43
2020/12/22 11:14:28;;;;;;;68.45;53.55;;;;;;;22.43;23.24;95211.03;5074385;28;20111;-44
2020/12/22 11:16:57;;;;;;;71.57;53.53;;;;;;;22.37;23.10;95207.81;5074115;28;20052;-43
2020/12/22 11:19:24;;;;;;;67.55;53.72;;;;;;;22.71;22.67;95195.78;5067906;28;20463;-44
2020/12/22 11:21:51;;;;;;;69.63;51.17;;;;;;;22.54;23.02;95198.75;5053696;28;20498;-44
2020/12/22 11:24:19;;;;;;;69.03;51.90;;;;;;;22.38;22.90;95205.94;5058874;28;20052;-44
2020/12/22 11:26:46;;;;;;;66.20;50.08;;;;;;;21.84;23.89;95199.13;5074059;28;20056;-44
2020/12/22 11:29:13;;;;;;;69.07;52.83;;;;;;;21.99;24.09;95197.66;5074626;28;20053;-43